createdAt,value
2023-03-05T00:02:00.641Z,76.38
2023-03-05T00:04:27.890Z,76.11
2023-03-05T00:06:55.763Z,75.76
2023-03-05T00:09:23.005Z,75.08
2023-03-05T00:11:50.251Z,74.96
2023-03-05T00:14:17.531Z,74.40
2023-03-05T00:16:44.789Z,74.18
2023-03-05T00:19:13.378Z,74.09
2023-03-05T00:21:42.088Z,73.65
2023-03-05T00:24:12.058Z,74.18
2023-03-05T00:26:39.862Z,74.21
2023-03-05T00:29:07.586Z,74.39
2023-03-05T00:31:35.534Z,74.26
2023-03-05T00:34:03.857Z,74.45
2023-03-05T00:36:32.744Z,74.66
2023-03-05T00:39:00.460Z,74.58
2023-03-05T00:41:28.097Z,74.70
2023-03-05T00:43:55.759Z,74.69
2023-03-05T00:46:23.140Z,74.94
2023-03-05T00:48:50.576Z,74.98
2023-03-05T00:51:17.882Z,75.07
2023-03-05T00:53:46.817Z,74.99
2023-03-05T00:56:14.106Z,74.55
2023-03-05T00:58:41.366Z,74.61
2023-03-05T01:01:08.702Z,74.60
2023-03-05T01:03:36.238Z,74.95
2023-03-05T01:06:05.662Z,74.60
2023-03-05T01:08:32.918Z,73.88
2023-03-05T01:11:01.575Z,74.10
2023-03-05T01:13:28.830Z,73.65
2023-03-05T01:15:56.077Z,73.86
2023-03-05T01:18:23.670Z,73.87
2023-03-05T01:20:50.937Z,74.12
2023-03-05T01:23:18.308Z,73.82
2023-03-05T01:25:45.629Z,72.88
2023-03-05T01:28:14.272Z,72.70
2023-03-05T01:30:41.538Z,72.43
2023-03-05T01:33:08.801Z,72.43
2023-03-05T01:35:36.071Z,72.16
2023-03-05T01:38:03.338Z,71.68
2023-03-05T01:40:31.386Z,71.46
2023-03-05T01:43:00.427Z,71.32
2023-03-05T01:45:31.366Z,71.00
2023-03-05T01:47:58.646Z,70.42
2023-03-05T01:50:27.139Z,70.83
2023-03-05T01:52:55.753Z,70.47
2023-03-05T01:55:23.937Z,69.42
2023-03-05T01:57:54.201Z,69.13
2023-03-05T02:00:23.533Z,69.19
2023-03-05T02:02:52.357Z,68.35
2023-03-05T02:05:20.756Z,68.88
2023-03-05T02:07:48.217Z,68.58
2023-03-05T02:10:16.445Z,68.22
2023-03-05T02:12:43.912Z,68.24
2023-03-05T02:15:12.569Z,67.97
2023-03-05T02:17:39.997Z,67.98
2023-03-05T02:20:11.348Z,67.95
2023-03-05T02:22:39.933Z,68.65
2023-03-05T02:25:14.786Z,68.68
2023-03-05T02:27:43.860Z,69.04
2023-03-05T02:30:12.450Z,69.38
2023-03-05T02:32:39.762Z,69.57
2023-03-05T02:35:07.640Z,69.41
2023-03-05T02:37:34.891Z,69.42
2023-03-05T02:40:03.572Z,70.04
2023-03-05T02:42:33.470Z,70.21
2023-03-05T02:45:00.948Z,70.73
2023-03-05T02:47:28.298Z,70.41
2023-03-05T02:49:55.925Z,70.49
2023-03-05T02:52:24.017Z,70.74
2023-03-05T02:54:51.294Z,70.64
2023-03-05T02:57:19.983Z,70.45
2023-03-05T02:59:47.875Z,69.72
2023-03-05T03:02:15.272Z,69.21
2023-03-05T03:04:42.512Z,69.33
2023-03-05T03:07:09.776Z,69.29
2023-03-05T03:09:37.016Z,69.71
2023-03-05T03:12:04.560Z,69.79
2023-03-05T03:14:37.730Z,69.36
2023-03-05T03:17:05.041Z,68.80
2023-03-05T03:19:32.465Z,68.89
2023-03-05T03:21:59.968Z,68.79
2023-03-05T03:24:27.293Z,68.68
2023-03-05T03:26:54.520Z,68.56
2023-03-05T03:29:21.790Z,68.61
2023-03-05T03:31:50.388Z,68.27
2023-03-05T03:34:18.339Z,68.45
2023-03-05T03:36:46.070Z,68.74
2023-03-05T03:39:14.000Z,68.65
2023-03-05T03:41:42.194Z,68.72
2023-03-05T03:44:10.668Z,68.71
2023-03-05T03:46:39.264Z,68.48
2023-03-05T03:49:09.064Z,68.65
2023-03-05T03:51:36.325Z,68.62
2023-03-05T03:54:03.594Z,68.42
2023-03-05T03:56:30.828Z,68.51
2023-03-05T03:58:58.115Z,68.57
2023-03-05T04:01:25.699Z,68.10
2023-03-05T04:03:52.992Z,67.65
2023-03-05T04:06:21.620Z,67.90
2023-03-05T04:08:48.890Z,67.93
2023-03-05T04:11:19.226Z,67.81
2023-03-05T04:13:46.779Z,67.70
2023-03-05T04:16:14.197Z,67.03
2023-03-05T04:18:41.817Z,67.14
2023-03-05T04:21:09.632Z,66.65
2023-03-05T04:23:38.200Z,66.98
2023-03-05T04:26:05.643Z,67.17
2023-03-05T04:28:32.977Z,67.07
2023-03-05T04:31:00.258Z,66.71
2023-03-05T04:33:27.669Z,67.14
2023-03-05T04:35:55.131Z,67.20
2023-03-05T04:38:22.717Z,67.21
2023-03-05T04:40:51.290Z,67.03
2023-03-05T04:43:18.556Z,67.63
2023-03-05T04:45:45.811Z,67.60
2023-03-05T04:48:13.594Z,67.83
2023-03-05T04:50:40.869Z,69.05
2023-03-05T04:53:08.131Z,69.78
2023-03-05T04:55:35.432Z,70.41
2023-03-05T04:58:04.158Z,71.35
2023-03-05T05:00:31.428Z,71.66
2023-03-05T05:02:58.703Z,72.44
2023-03-05T05:05:26.847Z,73.41
2023-03-05T05:07:56.030Z,74.76
2023-03-05T05:10:23.354Z,75.33
2023-03-05T05:12:50.598Z,75.87
2023-03-05T05:15:19.332Z,75.76
2023-03-05T05:17:46.680Z,76.32
2023-03-05T05:20:15.050Z,76.61
2023-03-05T05:22:42.650Z,76.52
2023-03-05T05:25:10.430Z,77.38
2023-03-05T05:27:38.265Z,76.95
2023-03-05T05:30:05.919Z,76.76
2023-03-05T05:32:34.559Z,76.44
2023-03-05T05:35:01.912Z,76.64
2023-03-05T05:37:30.412Z,76.23
2023-03-05T05:39:57.681Z,76.64
2023-03-05T05:42:25.718Z,75.88
2023-03-05T05:44:53.259Z,76.08
2023-03-05T05:47:20.550Z,75.93
2023-03-05T05:49:49.188Z,75.56
2023-03-05T05:52:16.435Z,74.98
2023-03-05T05:54:44.472Z,74.81
2023-03-05T05:57:11.747Z,74.54
2023-03-05T05:59:39.037Z,73.95
2023-03-05T06:02:07.848Z,72.77
2023-03-05T06:04:35.246Z,72.67
2023-03-05T06:07:04.212Z,72.64
2023-03-05T06:09:31.480Z,72.39
2023-03-05T06:11:58.890Z,72.21
2023-03-05T06:14:26.128Z,72.27
2023-03-05T06:16:53.504Z,71.65
2023-03-05T06:19:20.815Z,71.60
2023-03-05T06:21:48.083Z,71.50
2023-03-05T06:24:16.669Z,70.08
2023-03-05T06:26:44.258Z,70.32
2023-03-05T06:29:11.491Z,70.02
2023-03-05T06:31:39.627Z,70.00
2023-03-05T06:34:06.904Z,69.35
2023-03-05T06:36:34.228Z,69.29
2023-03-05T06:39:01.613Z,69.81
2023-03-05T06:41:31.836Z,69.56
2023-03-05T06:44:00.369Z,68.63
2023-03-05T06:46:28.899Z,69.46
2023-03-05T06:48:57.174Z,69.13
2023-03-05T06:51:25.581Z,68.59
2023-03-05T06:53:53.628Z,69.04
2023-03-05T06:56:21.518Z,68.94
2023-03-05T06:58:51.488Z,69.69
2023-03-05T07:01:19.378Z,68.97
2023-03-05T07:03:49.280Z,70.46
2023-03-05T07:06:16.734Z,70.42
2023-03-05T07:08:44.704Z,71.73
2023-03-05T07:11:12.852Z,71.79
2023-03-05T07:13:40.515Z,72.39
2023-03-05T07:16:10.362Z,73.13
2023-03-05T07:18:37.679Z,73.61
2023-03-05T07:21:05.420Z,73.29
2023-03-05T07:23:32.708Z,73.81
2023-03-05T07:26:01.598Z,74.99
2023-03-05T07:28:28.867Z,75.42
2023-03-05T07:30:57.164Z,76.74
2023-03-05T07:33:25.930Z,76.73
2023-03-05T07:35:53.339Z,76.64
2023-03-05T07:38:20.846Z,77.06
2023-03-05T07:40:48.201Z,76.83
2023-03-05T07:43:15.475Z,76.45
2023-03-05T07:45:43.134Z,76.19
2023-03-05T07:48:13.519Z,74.92
2023-03-05T07:50:42.633Z,75.31
2023-03-05T07:53:09.929Z,75.19
2023-03-05T07:55:42.836Z,75.18
2023-03-05T07:58:10.108Z,74.91
2023-03-05T08:00:37.461Z,75.12
2023-03-05T08:03:04.831Z,75.02
2023-03-05T08:05:32.086Z,75.13
2023-03-05T08:08:00.689Z,75.09
2023-03-05T08:10:27.974Z,75.35
2023-03-05T08:12:55.251Z,76.61
2023-03-05T08:15:22.853Z,76.94
2023-03-05T08:17:50.095Z,77.25
2023-03-05T08:20:19.125Z,78.04
2023-03-05T08:22:46.444Z,79.10
2023-03-05T08:25:15.027Z,80.22
2023-03-05T08:27:43.212Z,80.28
2023-03-05T08:30:12.709Z,80.19
2023-03-05T08:32:40.028Z,79.99
2023-03-05T08:35:07.667Z,79.11
2023-03-05T08:37:34.929Z,78.46
2023-03-05T08:40:02.308Z,78.27
2023-03-05T08:42:30.900Z,76.88
2023-03-05T08:44:58.156Z,76.27
2023-03-05T08:47:26.844Z,75.30
2023-03-05T08:49:55.479Z,74.21
2023-03-05T08:52:22.856Z,74.06
2023-03-05T08:54:50.167Z,73.89
2023-03-05T08:57:17.645Z,73.75
2023-03-05T08:59:46.248Z,73.24
2023-03-05T09:02:13.577Z,73.93
2023-03-05T09:04:41.032Z,73.24
2023-03-05T09:07:08.568Z,74.81
2023-03-05T09:09:35.926Z,76.84
2023-03-05T09:12:03.264Z,79.60
2023-03-05T09:14:30.534Z,81.33
2023-03-05T09:16:59.157Z,82.57
2023-03-05T09:19:27.399Z,81.50
2023-03-05T09:21:56.877Z,82.30
2023-03-05T09:24:24.380Z,84.76
2023-03-05T09:26:51.643Z,84.30
2023-03-05T09:29:18.917Z,85.62
2023-03-05T09:31:48.551Z,85.81
2023-03-05T09:34:17.225Z,87.12
2023-03-05T09:36:44.578Z,85.34
2023-03-05T09:39:11.858Z,88.28
2023-03-05T09:41:48.748Z,86.66
2023-03-05T09:44:23.360Z,86.80
2023-03-05T09:46:53.210Z,86.91
2023-03-05T09:49:29.537Z,85.26
2023-03-05T09:52:02.722Z,85.21
2023-03-05T09:54:33.673Z,85.05
2023-03-05T09:57:04.330Z,84.25
2023-03-05T09:59:35.871Z,84.02
2023-03-05T10:02:05.888Z,79.95
2023-03-05T10:04:43.799Z,79.26
2023-03-05T10:07:16.089Z,77.14
2023-03-05T10:09:45.728Z,78.17
2023-03-05T10:12:16.112Z,74.80
2023-03-05T10:14:43.500Z,75.08
2023-03-05T10:17:29.391Z,76.92
2023-03-05T10:20:15.222Z,76.14
2023-03-05T10:22:54.908Z,76.33
2023-03-05T10:25:24.889Z,76.55
2023-03-05T10:27:55.950Z,76.04
2023-03-05T10:30:28.826Z,75.32
2023-03-05T10:33:00.780Z,74.73
2023-03-05T10:35:40.908Z,75.17
2023-03-05T10:38:32.349Z,74.33
2023-03-05T10:41:06.519Z,72.74
2023-03-05T10:43:37.288Z,71.44
2023-03-05T10:46:05.035Z,70.42
2023-03-05T10:48:36.310Z,68.45
2023-03-05T10:51:05.748Z,68.79
2023-03-05T10:53:36.449Z,67.80
2023-03-05T10:56:04.413Z,68.14
2023-03-05T10:58:32.075Z,69.47
2023-03-05T11:01:04.101Z,68.69
2023-03-05T11:03:46.989Z,69.01
2023-03-05T11:06:14.977Z,68.58
2023-03-05T11:08:43.585Z,68.38
2023-03-05T11:11:15.800Z,66.98
2023-03-05T11:13:54.719Z,67.48
2023-03-05T11:16:23.195Z,68.98
2023-03-05T11:19:17.950Z,69.46
2023-03-05T11:21:46.117Z,70.76
2023-03-05T11:24:15.875Z,69.25
2023-03-05T11:26:47.109Z,69.11
2023-03-05T11:29:17.940Z,69.12
2023-03-05T11:31:45.426Z,69.56
2023-03-05T11:34:23.340Z,70.15
2023-03-05T11:37:03.591Z,69.66
2023-03-05T11:39:35.105Z,69.09
2023-03-05T11:42:03.681Z,70.20
2023-03-05T11:44:34.202Z,69.53
2023-03-05T11:47:04.936Z,70.20
2023-03-05T11:49:35.188Z,71.09
2023-03-05T11:52:06.818Z,71.71
2023-03-05T11:54:40.055Z,71.15
2023-03-05T11:57:10.592Z,71.45
2023-03-05T11:59:40.228Z,71.88
2023-03-05T12:02:18.303Z,72.11
2023-03-05T12:04:46.981Z,73.10
2023-03-05T12:07:17.411Z,72.75
2023-03-05T12:09:47.632Z,72.80
2023-03-05T12:12:22.988Z,73.33
2023-03-05T12:14:53.745Z,73.89
2023-03-05T12:17:25.516Z,74.13
2023-03-05T12:19:54.490Z,73.77
2023-03-05T12:22:23.005Z,74.18
2023-03-05T12:24:52.184Z,73.69
2023-03-05T12:27:33.141Z,74.79
2023-03-05T12:30:02.298Z,73.77
2023-03-05T12:33:02.209Z,74.00
2023-03-05T12:35:35.877Z,73.36
2023-03-05T12:38:24.380Z,72.65
2023-03-05T12:40:53.817Z,72.87
2023-03-05T12:43:29.352Z,72.38
2023-03-05T12:46:22.588Z,72.81
2023-03-05T12:48:49.914Z,73.40
2023-03-05T12:51:37.667Z,72.77
2023-03-05T12:54:21.102Z,72.32
2023-03-05T12:56:50.049Z,71.94
2023-03-05T12:59:19.832Z,72.02
2023-03-05T13:01:50.387Z,72.07
2023-03-05T13:04:21.078Z,72.93
2023-03-05T13:06:58.178Z,72.54
2023-03-05T13:09:27.577Z,72.71
2023-03-05T13:11:57.399Z,72.61
2023-03-05T13:14:31.045Z,72.56
2023-03-05T13:16:58.888Z,72.55
2023-03-05T13:19:26.395Z,71.36
2023-03-05T13:22:00.789Z,71.63
2023-03-05T13:24:29.154Z,71.63
2023-03-05T13:26:58.564Z,71.70
2023-03-05T13:29:28.173Z,71.66
2023-03-05T13:31:56.720Z,72.21
2023-03-05T13:34:26.533Z,72.39
2023-03-05T13:36:57.862Z,72.08
2023-03-05T13:39:27.467Z,71.92
2023-03-05T13:42:03.392Z,71.93
2023-03-05T13:44:31.086Z,72.52
2023-03-05T13:47:08.433Z,72.29
2023-03-05T13:49:36.215Z,73.47
2023-03-05T13:52:03.537Z,72.83
2023-03-05T13:54:31.265Z,73.38
2023-03-05T13:56:59.905Z,73.41
2023-03-05T13:59:29.514Z,73.25
2023-03-05T14:01:57.575Z,73.17
2023-03-05T14:04:25.821Z,72.98
2023-03-05T14:06:55.812Z,73.03
2023-03-05T14:09:24.039Z,72.99
2023-03-05T14:11:58.722Z,73.60
2023-03-05T14:14:26.693Z,73.40
2023-03-05T14:16:55.464Z,73.56
2023-03-05T14:19:34.697Z,72.78
2023-03-05T14:22:02.190Z,73.11
2023-03-05T14:24:31.288Z,73.88
2023-03-05T14:26:59.248Z,76.63
2023-03-05T14:29:28.263Z,78.30
2023-03-05T14:31:58.147Z,79.77
2023-03-05T14:34:27.261Z,80.46
2023-03-05T14:36:55.162Z,81.16
2023-03-05T14:39:33.377Z,80.46
2023-03-05T14:42:19.567Z,79.66
2023-03-05T14:44:47.367Z,80.45
2023-03-05T14:47:15.963Z,79.47
2023-03-05T14:49:43.300Z,78.23
2023-03-05T14:52:14.708Z,78.11
2023-03-05T14:54:42.319Z,77.42
2023-03-05T14:57:15.601Z,77.34
2023-03-05T14:59:42.850Z,78.32
2023-03-05T15:02:15.043Z,78.72
2023-03-05T15:04:45.571Z,79.10
2023-03-05T15:07:17.625Z,79.85
2023-03-05T15:09:44.984Z,82.61
2023-03-05T15:12:13.872Z,83.48
2023-03-05T15:14:42.141Z,84.25
2023-03-05T15:17:13.120Z,86.49
2023-03-05T15:19:40.374Z,88.25
2023-03-05T15:22:10.169Z,88.83
2023-03-05T15:24:37.436Z,89.24
2023-03-05T15:27:05.764Z,89.51
2023-03-05T15:29:33.283Z,90.49
2023-03-05T15:32:04.905Z,90.43
2023-03-05T15:34:33.616Z,90.39
2023-03-05T15:37:01.360Z,90.57
2023-03-05T15:39:30.077Z,90.24
2023-03-05T15:41:57.678Z,89.57
2023-03-05T15:44:26.490Z,87.79
2023-03-05T15:46:53.805Z,88.90
2023-03-05T15:49:22.623Z,88.50
2023-03-05T15:51:50.183Z,88.42
2023-03-05T15:54:17.435Z,87.42
2023-03-05T15:56:48.042Z,87.16
2023-03-05T15:59:15.355Z,85.93
2023-03-05T16:01:45.593Z,85.71
2023-03-05T16:04:13.135Z,86.00
2023-03-05T16:06:40.432Z,85.52
2023-03-05T16:09:07.741Z,85.48
2023-03-05T16:11:36.712Z,85.02
2023-03-05T16:14:07.491Z,84.70
2023-03-05T16:16:35.315Z,84.41
2023-03-05T16:19:03.360Z,84.88
2023-03-05T16:21:31.044Z,85.64
2023-03-05T16:23:59.477Z,84.00
2023-03-05T16:26:27.039Z,83.57
2023-03-05T16:28:54.488Z,84.02
2023-03-05T16:31:23.162Z,83.70
2023-03-05T16:33:50.443Z,83.31
2023-03-05T16:36:20.642Z,83.31
2023-03-05T16:38:48.496Z,83.68
2023-03-05T16:41:16.837Z,83.77
2023-03-05T16:43:44.941Z,83.67
2023-03-05T16:46:12.757Z,82.93
2023-03-05T16:48:42.452Z,82.49
2023-03-05T16:51:09.889Z,82.66
2023-03-05T16:53:37.250Z,82.58
2023-03-05T16:56:05.137Z,82.82
2023-03-05T16:58:33.052Z,82.53
2023-03-05T17:01:00.733Z,82.76
2023-03-05T17:03:30.602Z,82.25
2023-03-05T17:05:59.511Z,82.82
2023-03-05T17:08:28.920Z,82.75
2023-03-05T17:10:56.156Z,82.18
2023-03-05T17:13:23.455Z,81.73
2023-03-05T17:15:51.846Z,82.32
2023-03-05T17:18:21.771Z,80.55
2023-03-05T17:20:49.028Z,80.55
2023-03-05T17:23:17.613Z,79.76
2023-03-05T17:25:44.908Z,79.29
2023-03-05T17:28:12.230Z,78.95
2023-03-05T17:30:39.733Z,78.08
2023-03-05T17:33:07.103Z,77.78
2023-03-05T17:35:35.176Z,76.78
2023-03-05T17:38:03.279Z,77.69
2023-03-05T17:40:32.195Z,77.14
2023-03-05T17:42:59.496Z,77.46
2023-03-05T17:45:27.028Z,77.14
2023-03-05T17:47:54.370Z,77.16
2023-03-05T17:50:21.846Z,76.18
2023-03-05T17:52:49.257Z,76.46
2023-03-05T17:55:17.678Z,76.31
2023-03-05T17:57:47.805Z,77.44
2023-03-05T18:00:16.525Z,77.29
2023-03-05T18:02:43.861Z,77.48
2023-03-05T18:05:11.441Z,77.83
2023-03-05T18:07:38.845Z,78.20
2023-03-05T18:10:07.123Z,78.01
2023-03-05T18:12:34.525Z,77.71
2023-03-05T18:15:03.112Z,78.26
2023-03-05T18:17:30.363Z,77.84
2023-03-05T18:19:57.734Z,78.01
2023-03-05T18:22:25.001Z,77.35
2023-03-05T18:24:52.285Z,77.61
2023-03-05T18:27:22.973Z,78.08
2023-03-05T18:29:53.902Z,77.83
2023-03-05T18:32:24.261Z,77.09
2023-03-05T18:34:51.895Z,77.77
2023-03-05T18:37:19.368Z,79.55
2023-03-05T18:39:46.629Z,79.91
2023-03-05T18:42:14.639Z,79.99
2023-03-05T18:44:41.953Z,80.07
2023-03-05T18:47:09.253Z,80.28
2023-03-05T18:49:37.867Z,81.29
2023-03-05T18:52:05.299Z,82.33
2023-03-05T18:54:33.405Z,83.58
2023-03-05T18:57:00.717Z,84.69
2023-03-05T18:59:29.555Z,85.42
2023-03-05T19:01:56.838Z,86.56
2023-03-05T19:04:24.463Z,87.12
2023-03-05T19:06:53.062Z,87.66
2023-03-05T19:09:30.883Z,87.73
2023-03-05T19:11:58.178Z,88.79
2023-03-05T19:14:25.604Z,89.54
2023-03-05T19:16:52.875Z,89.40
2023-03-05T19:19:23.566Z,89.92
2023-03-05T19:21:53.402Z,89.96
2023-03-05T19:24:23.171Z,89.51
2023-03-05T19:26:55.070Z,89.42
2023-03-05T19:29:22.846Z,89.75
2023-03-05T19:31:50.230Z,90.02
2023-03-05T19:34:17.523Z,89.23
2023-03-05T19:36:44.887Z,89.21
2023-03-05T19:39:12.175Z,89.63
2023-03-05T19:41:40.921Z,89.65
2023-03-05T19:44:08.221Z,88.94
2023-03-05T19:46:35.613Z,88.47
2023-03-05T19:49:02.940Z,88.95
2023-03-05T19:51:30.303Z,88.20
2023-03-05T19:53:57.562Z,87.84
2023-03-05T19:56:25.125Z,88.27
2023-03-05T19:58:53.803Z,88.68
2023-03-05T20:01:22.436Z,89.54
2023-03-05T20:03:50.677Z,89.24
2023-03-05T20:06:18.282Z,89.42
2023-03-05T20:08:45.649Z,89.62
2023-03-05T20:11:13.681Z,89.29
2023-03-05T20:13:41.648Z,88.50
2023-03-05T20:16:15.687Z,88.03
2023-03-05T20:18:43.011Z,88.54
2023-03-05T20:21:10.359Z,88.78
2023-03-05T20:23:37.888Z,88.68
2023-03-05T20:26:06.640Z,88.22
2023-03-05T20:28:34.353Z,88.05
2023-03-05T20:31:02.203Z,87.88
2023-03-05T20:33:31.273Z,87.80
2023-03-05T20:35:58.615Z,88.03
2023-03-05T20:38:28.474Z,88.31
2023-03-05T20:40:58.387Z,88.82
2023-03-05T20:43:26.746Z,88.74
2023-03-05T20:45:54.242Z,88.64
2023-03-05T20:48:21.706Z,87.86
2023-03-05T20:50:50.377Z,88.08
2023-03-05T20:53:17.993Z,88.45
2023-03-05T20:55:45.405Z,87.57
2023-03-05T20:58:12.957Z,88.28
2023-03-05T21:00:44.958Z,88.16
2023-03-05T21:03:12.671Z,87.79
2023-03-05T21:05:40.057Z,87.51
2023-03-05T21:08:08.671Z,87.73
2023-03-05T21:10:36.116Z,88.00
2023-03-05T21:13:03.415Z,87.77
2023-03-05T21:15:31.316Z,88.75
2023-03-05T21:17:58.968Z,88.82
2023-03-05T21:20:28.062Z,89.07
2023-03-05T21:22:56.029Z,89.03
2023-03-05T21:25:27.366Z,89.25
2023-03-05T21:27:55.636Z,89.56
2023-03-05T21:30:23.210Z,89.37
2023-03-05T21:32:50.523Z,89.46
2023-03-05T21:35:18.864Z,90.24
2023-03-05T21:37:46.318Z,89.83
2023-03-05T21:40:14.913Z,89.79
2023-03-05T21:42:44.397Z,90.06
2023-03-05T22:02:10.661Z,88.97
2023-03-05T22:04:38.088Z,90.31
2023-03-05T22:07:06.520Z,90.20
2023-03-05T22:09:33.943Z,89.84
2023-03-05T22:12:01.898Z,89.43
2023-03-05T22:14:29.134Z,89.54
2023-03-05T22:17:01.646Z,89.87
2023-03-05T22:19:30.435Z,89.47
2023-03-05T22:21:57.898Z,89.42
2023-03-05T22:24:25.441Z,88.38
2023-03-05T22:26:52.862Z,87.06
2023-03-05T22:29:20.102Z,86.78
2023-03-05T22:31:47.374Z,85.98
2023-03-05T22:34:14.615Z,84.34
2023-03-05T22:36:43.193Z,83.06
2023-03-05T22:39:10.508Z,81.96
2023-03-05T22:41:37.752Z,82.54
2023-03-05T22:44:05.116Z,81.29
2023-03-05T22:46:32.394Z,81.97
2023-03-05T22:48:59.660Z,81.28
2023-03-05T22:51:26.950Z,81.02
2023-03-05T22:53:55.732Z,81.60
2023-03-05T22:56:23.004Z,81.25
2023-03-05T22:58:50.292Z,81.27
2023-03-05T23:01:18.568Z,80.81
2023-03-05T23:03:46.945Z,80.66
2023-03-05T23:06:14.291Z,80.81
2023-03-05T23:08:41.578Z,80.05
2023-03-05T23:11:15.693Z,80.43
2023-03-05T23:13:42.945Z,80.15
2023-03-05T23:16:10.473Z,80.25
2023-03-05T23:18:38.236Z,80.07
2023-03-05T23:21:05.650Z,79.49
2023-03-05T23:23:33.259Z,80.10
2023-03-05T23:26:00.550Z,79.85
2023-03-05T23:28:29.182Z,79.20
2023-03-05T23:30:58.041Z,80.01
2023-03-05T23:33:25.315Z,80.71
2023-03-05T23:35:53.549Z,79.78
2023-03-05T23:38:21.155Z,79.57
2023-03-05T23:40:49.500Z,79.62
2023-03-05T23:43:17.229Z,79.81
2023-03-05T23:45:48.028Z,79.38
2023-03-05T23:48:16.065Z,78.32
2023-03-05T23:50:44.418Z,78.61
2023-03-05T23:53:12.263Z,78.99
2023-03-05T23:55:42.384Z,79.07
2023-03-05T23:58:09.814Z,78.48
